Irvine, Alberta

8:44 AM EDT on September 18, 2014 (GMT -0400)
Saamis Heights | Change Station
CLOSE
Current Station
Personal Weather Station
Location: Medicine Hat, ALBERTA
Elevation: 2349 ft
Nearby Weather Stations

Elev 2349 ft 50.00 °N, 110.70 °W | Updated 3 minutes ago

Clear
Clear
57.2 °F
Feels Like 57.2 °F
N
7.8
Wind Variable Wind from SSW

Today is forecast to be nearly the same temperature as yesterday.

Today
High -- | Low -- °F
--% Chance of Precip.
Yesterday
High -- | Low -- °F
Precip. -- in
9:01 AM 9:27 PM
Waning Crescent, 27% visible
Pressure 29.57 in
Visibility 9.0 miles
Clouds Clear
Dew Point 50 °F
Humidity 76%
Rainfall 0.00 in
Snow Depth Not available.
UV 0 out of 12
Pollen Not available.
Air Quality Not available.
Flu Activity Not available.
METAR CYXH 181200Z AUTO 20007KT 9SM CLR 15/10 A2959 RMK SLP012 DENSITY ALT 3200FT

More Conditions Fewer Conditions

Pressure 29.57 in
Visibility 9.0 miles
Clouds Clear
Dew Point 50 °F
Humidity 76%
Rainfall 0.00 in
Snow Depth Not available.
UV 0 out of 12
Pollen Not available.
Air Quality Not available.
Flu Activity Not available.
METAR CYXH 181200Z AUTO 20007KT 9SM CLR 15/10 A2959 RMK SLP012 DENSITY ALT 3200FT

More Conditions Fewer Conditions

10-Day Weather Forecast

Almanac

Astronomy

Sep. 18, 2014 Rise Set
Actual Time 9:01 AM EDT 9:27 PM EDT
Civil Twilight 8:29 AM EDT 10:00 PM EDT
Nautical Twilight 7:50 AM EDT 10:38 PM EDT
Astronomical Twilight 7:10 AM EDT 11:18 PM EDT
Moon 3:33 AM EDT 6:41 PM EDT
Length of Visible Light 13h 30m
Length of Day
12h 26m
Tomorrow will be 3m 42s shorter.
Waning Crescent, 27% of the Moon is Illuminated
Today
Waning Crescent
Sep 24
New
Oct 1
First Quarter
Oct 8
Full
Oct 15
Last Quarter

Yesterday's Extremes

Country Highs Country Lows

Community

WunderPhotos

Upload Photos

1,754,333 photos uploaded!

Nearby

Snow Depth

Not available.

Earthquake Activity

City Distance Mag. Time & Date
No recent earthquake activity has been reported nearby.
Minimum magnitude displayed is 2.5.

Coastal Water Temperatures

Place Temperature
No Stations Reporting

Nearby Weather Stations